sensor_id;sensor_type;location;lat;lon;timestamp;pressure;altitude;pressure_sealevel;temperature;humidity
50166;BME280;36071;48.140;11.516;2023-05-12T00:03:57;95190.0;;;9.7;100.0
50166;BME280;36071;48.140;11.516;2023-05-12T00:08:57;95200.0;;;9.8;100.0
50166;BME280;36071;48.140;11.516;2023-05-12T00:13:57;95190.0;;;9.8;100.0
50166;BME280;36071;48.140;11.516;2023-05-12T00:28:57;95200.0;;;9.8;100.0
50166;BME280;36071;48.140;11.516;2023-05-12T00:33:57;95190.0;;;9.8;100.0
50166;BME280;36071;48.140;11.516;2023-05-12T00:38:57;95180.0;;;9.8;100.0
50166;BME280;36071;48.140;11.516;2023-05-12T00:43:57;95190.0;;;9.7;100.0
50166;BME280;36071;48.140;11.516;2023-05-12T00:48:57;95180.0;;;9.7;100.0
50166;BME280;36071;48.140;11.516;2023-05-12T00:58:57;95180.0;;;9.6;100.0
50166;BME280;36071;48.140;11.516;2023-05-12T01:03:57;95190.0;;;9.7;100.0
50166;BME280;36071;48.140;11.516;2023-05-12T01:08:57;95180.0;;;9.7;100.0
50166;BME280;36071;48.140;11.516;2023-05-12T01:18:57;95190.0;;;9.6;100.0
50166;BME280;36071;48.140;11.516;2023-05-12T01:23:57;95180.0;;;9.6;100.0
50166;BME280;36071;48.140;11.516;2023-05-12T01:28:57;95170.0;;;9.6;100.0
50166;BME280;36071;48.140;11.516;2023-05-12T01:48:57;95180.0;;;9.6;100.0
50166;BME280;36071;48.140;11.516;2023-05-12T01:53:57;95170.0;;;9.6;100.0
50166;BME280;36071;48.140;11.516;2023-05-12T01:58:57;95180.0;;;9.5;100.0
50166;BME280;36071;48.140;11.516;2023-05-12T02:03:57;95170.0;;;9.5;100.0
50166;BME280;36071;48.140;11.516;2023-05-12T02:08:57;95160.0;;;9.6;100.0
50166;BME280;36071;48.140;11.516;2023-05-12T02:13:57;95170.0;;;9.6;100.0
50166;BME280;36071;48.140;11.516;2023-05-12T02:23:57;95160.0;;;9.6;100.0
50166;BME280;36071;48.140;11.516;2023-05-12T02:28:57;95170.0;;;9.6;100.0
50166;BME280;36071;48.140;11.516;2023-05-12T02:38:58;95160.0;;;9.6;100.0
50166;BME280;36071;48.140;11.516;2023-05-12T02:43:57;95160.0;;;9.5;100.0
50166;BME280;36071;48.140;11.516;2023-05-12T02:48:57;95170.0;;;9.6;100.0
50166;BME280;36071;48.140;11.516;2023-05-12T02:53:57;95170.0;;;9.5;100.0
50166;BME280;36071;48.140;11.516;2023-05-12T02:58:57;95170.0;;;9.6;100.0
50166;BME280;36071;48.140;11.516;2023-05-12T03:03:57;95170.0;;;9.5;100.0
50166;BME280;36071;48.140;11.516;2023-05-12T03:13:57;95170.0;;;9.6;100.0
50166;BME280;36071;48.140;11.516;2023-05-12T03:23:57;95180.0;;;9.6;100.0
50166;BME280;36071;48.140;11.516;2023-05-12T03:28:57;95180.0;;;9.5;100.0
50166;BME280;36071;48.140;11.516;2023-05-12T03:33:57;95180.0;;;9.6;100.0
50166;BME280;36071;48.140;11.516;2023-05-12T03:43:57;95180.0;;;9.5;100.0
50166;BME280;36071;48.140;11.516;2023-05-12T03:53:57;95170.0;;;9.5;100.0
50166;BME280;36071;48.140;11.516;2023-05-12T03:58:58;95180.0;;;9.4;100.0
50166;BME280;36071;48.140;11.516;2023-05-12T04:03:57;95170.0;;;9.5;100.0
50166;BME280;36071;48.140;11.516;2023-05-12T04:13:57;95180.0;;;9.5;100.0
50166;BME280;36071;48.140;11.516;2023-05-12T04:28:57;95190.0;;;9.5;100.0
50166;BME280;36071;48.140;11.516;2023-05-12T04:38:57;95190.0;;;9.6;100.0
50166;BME280;36071;48.140;11.516;2023-05-12T04:48:57;95200.0;;;9.6;100.0
50166;BME280;36071;48.140;11.516;2023-05-12T04:58:57;95210.0;;;9.6;100.0
50166;BME280;36071;48.140;11.516;2023-05-12T05:03:57;95210.0;;;9.7;100.0
50166;BME280;36071;48.140;11.516;2023-05-12T05:13:57;95210.0;;;9.8;100.0
50166;BME280;36071;48.140;11.516;2023-05-12T05:23:57;95210.0;;;9.9;100.0
50166;BME280;36071;48.140;11.516;2023-05-12T05:33:57;95220.0;;;10.0;100.0
50166;BME280;36071;48.140;11.516;2023-05-12T05:43:57;95210.0;;;10.0;100.0
50166;BME280;36071;48.140;11.516;2023-05-12T05:48:57;95210.0;;;10.1;100.0
50166;BME280;36071;48.140;11.516;2023-05-12T05:53:57;95220.0;;;10.2;100.0
50166;BME280;36071;48.140;11.516;2023-05-12T06:03:57;95220.0;;;10.3;100.0
50166;BME280;36071;48.140;11.516;2023-05-12T06:08:57;95210.0;;;10.4;100.0
50166;BME280;36071;48.140;11.516;2023-05-12T06:13:57;95220.0;;;10.5;100.0
50166;BME280;36071;48.140;11.516;2023-05-12T06:19:05;95220.0;;;10.6;100.0
50166;BME280;36071;48.140;11.516;2023-05-12T06:23:57;95220.0;;;10.5;100.0
50166;BME280;36071;48.140;11.516;2023-05-12T06:28:57;95230.0;;;10.6;100.0
50166;BME280;36071;48.140;11.516;2023-05-12T06:38:57;95240.0;;;10.6;100.0
50166;BME280;36071;48.140;11.516;2023-05-12T06:48:57;95250.0;;;10.5;100.0
50166;BME280;36071;48.140;11.516;2023-05-12T06:53:57;95240.0;;;10.3;100.0
50166;BME280;36071;48.140;11.516;2023-05-12T06:58:58;95240.0;;;10.4;100.0
50166;BME280;36071;48.140;11.516;2023-05-12T07:13:57;95240.0;;;10.5;100.0
50166;BME280;36071;48.140;11.516;2023-05-12T07:28:57;95240.0;;;10.6;100.0
50166;BME280;36071;48.140;11.516;2023-05-12T07:33:57;95230.0;;;10.5;100.0
50166;BME280;36071;48.140;11.516;2023-05-12T07:38:58;95220.0;;;10.5;100.0
50166;BME280;36071;48.140;11.516;2023-05-12T07:43:57;95240.0;;;10.5;100.0
50166;BME280;36071;48.140;11.516;2023-05-12T07:48:57;95240.0;;;10.6;100.0
50166;BME280;36071;48.140;11.516;2023-05-12T07:53:57;95250.0;;;10.6;100.0
50166;BME280;36071;48.140;11.516;2023-05-12T07:58:58;95240.0;;;10.8;100.0
50166;BME280;36071;48.140;11.516;2023-05-12T08:03:57;95240.0;;;10.7;100.0
50166;BME280;36071;48.140;11.516;2023-05-12T08:08:57;95250.0;;;10.7;100.0
50166;BME280;36071;48.140;11.516;2023-05-12T08:13:57;95240.0;;;10.8;100.0
50166;BME280;36071;48.140;11.516;2023-05-12T08:23:57;95240.0;;;10.9;100.0
50166;BME280;36071;48.140;11.516;2023-05-12T08:33:57;95250.0;;;11.0;100.0
50166;BME280;36071;48.140;11.516;2023-05-12T08:38:57;95250.0;;;10.9;100.0
50166;BME280;36071;48.140;11.516;2023-05-12T08:48:57;95250.0;;;11.0;100.0
50166;BME280;36071;48.140;11.516;2023-05-12T08:58:57;95250.0;;;10.9;100.0
50166;BME280;36071;48.140;11.516;2023-05-12T09:03:57;95260.0;;;11.0;100.0
50166;BME280;36071;48.140;11.516;2023-05-12T09:08:57;95260.0;;;11.0;99.0
50166;BME280;36071;48.140;11.516;2023-05-12T09:13:57;95260.0;;;11.0;100.0
50166;BME280;36071;48.140;11.516;2023-05-12T09:18:57;95260.0;;;11.2;98.1
50166;BME280;36071;48.140;11.516;2023-05-12T09:23:57;95260.0;;;11.3;98.1
50166;BME280;36071;48.140;11.516;2023-05-12T09:29:02;95260.0;;;11.3;98.9
50166;BME280;36071;48.140;11.516;2023-05-12T09:33:57;95250.0;;;11.3;98.5
50166;BME280;36071;48.140;11.516;2023-05-12T09:38:57;95260.0;;;11.4;97.6
50166;BME280;36071;48.140;11.516;2023-05-12T09:43:58;95260.0;;;11.4;100.0
50166;BME280;36071;48.140;11.516;2023-05-12T09:48:57;95260.0;;;11.4;99.8
50166;BME280;36071;48.140;11.516;2023-05-12T09:53:57;95260.0;;;11.3;99.3
50166;BME280;36071;48.140;11.516;2023-05-12T09:58:58;95240.0;;;11.2;99.7
50166;BME280;36071;48.140;11.516;2023-05-12T10:03:57;95260.0;;;11.3;95.2
50166;BME280;36071;48.140;11.516;2023-05-12T10:08:59;95260.0;;;11.4;95.8
50166;BME280;36071;48.140;11.516;2023-05-12T10:13:57;95260.0;;;11.5;99.4
50166;BME280;36071;48.140;11.516;2023-05-12T10:18:57;95260.0;;;11.4;95.4
50166;BME280;36071;48.140;11.516;2023-05-12T10:23:57;95260.0;;;11.4;94.5
50166;BME280;36071;48.140;11.516;2023-05-12T10:28:57;95260.0;;;11.4;93.7
50166;BME280;36071;48.140;11.516;2023-05-12T10:33:57;95260.0;;;11.4;94.3
50166;BME280;36071;48.140;11.516;2023-05-12T10:39:03;95270.0;;;11.4;92.5
50166;BME280;36071;48.140;11.516;2023-05-12T10:43:57;95270.0;;;11.6;91.4
50166;BME280;36071;48.140;11.516;2023-05-12T10:48:57;95270.0;;;11.8;89.1
50166;BME280;36071;48.140;11.516;2023-05-12T10:53:58;95270.0;;;12.1;92.2
50166;BME280;36071;48.140;11.516;2023-05-12T10:59:05;95270.0;;;12.4;88.4
50166;BME280;36071;48.140;11.516;2023-05-12T11:03:57;95270.0;;;12.4;86.4
50166;BME280;36071;48.140;11.516;2023-05-12T11:08:57;95270.0;;;12.6;84.3
50166;BME280;36071;48.140;11.516;2023-05-12T11:13:57;95270.0;;;12.8;84.5
50166;BME280;36071;48.140;11.516;2023-05-12T11:19:01;95270.0;;;12.8;81.5
50166;BME280;36071;48.140;11.516;2023-05-12T11:23:57;95270.0;;;13.0;86.7
50166;BME280;36071;48.140;11.516;2023-05-12T11:28:57;95270.0;;;13.0;80.6
50166;BME280;36071;48.140;11.516;2023-05-12T11:34:04;95270.0;;;12.9;83.7
50166;BME280;36071;48.140;11.516;2023-05-12T11:38:57;95270.0;;;12.9;84.0
50166;BME280;36071;48.140;11.516;2023-05-12T11:43:57;95280.0;;;12.8;86.7
50166;BME280;36071;48.140;11.516;2023-05-12T11:48:57;95280.0;;;12.7;87.0
50166;BME280;36071;48.140;11.516;2023-05-12T11:53:57;95280.0;;;12.6;83.8
50166;BME280;36071;48.140;11.516;2023-05-12T11:58:57;95280.0;;;12.5;85.0
50166;BME280;36071;48.140;11.516;2023-05-12T12:03:57;95290.0;;;12.5;84.5
50166;BME280;36071;48.140;11.516;2023-05-12T12:08:57;95290.0;;;12.6;86.7
50166;BME280;36071;48.140;11.516;2023-05-12T12:13:57;95290.0;;;12.5;87.5
50166;BME280;36071;48.140;11.516;2023-05-12T12:18:57;95290.0;;;12.6;87.4
50166;BME280;36071;48.140;11.516;2023-05-12T12:23:58;95290.0;;;12.6;85.2
50166;BME280;36071;48.140;11.516;2023-05-12T12:28:57;95290.0;;;12.6;84.1
50166;BME280;36071;48.140;11.516;2023-05-12T12:33:57;95290.0;;;12.6;84.7
50166;BME280;36071;48.140;11.516;2023-05-12T12:38:57;95290.0;;;12.5;82.7
50166;BME280;36071;48.140;11.516;2023-05-12T12:43:57;95290.0;;;12.6;80.1
50166;BME280;36071;48.140;11.516;2023-05-12T12:48:57;95290.0;;;12.6;77.2
50166;BME280;36071;48.140;11.516;2023-05-12T12:53:57;95290.0;;;12.6;76.5
50166;BME280;36071;48.140;11.516;2023-05-12T12:58:57;95290.0;;;12.6;77.6
50166;BME280;36071;48.140;11.516;2023-05-12T13:03:57;95300.0;;;12.7;78.7
50166;BME280;36071;48.140;11.516;2023-05-12T13:08:57;95290.0;;;12.9;77.6
50166;BME280;36071;48.140;11.516;2023-05-12T13:13:57;95290.0;;;13.0;76.9
50166;BME280;36071;48.140;11.516;2023-05-12T13:18:57;95290.0;;;13.1;75.9
50166;BME280;36071;48.140;11.516;2023-05-12T13:23:57;95290.0;;;13.3;78.7
50166;BME280;36071;48.140;11.516;2023-05-12T13:28:57;95280.0;;;13.6;79.3
50166;BME280;36071;48.140;11.516;2023-05-12T13:33:57;95280.0;;;13.7;78.2
50166;BME280;36071;48.140;11.516;2023-05-12T13:38:58;95280.0;;;13.7;76.9
50166;BME280;36071;48.140;11.516;2023-05-12T13:43:58;95280.0;;;13.8;75.8
50166;BME280;36071;48.140;11.516;2023-05-12T13:48:57;95280.0;;;13.8;74.8
50166;BME280;36071;48.140;11.516;2023-05-12T13:53:57;95290.0;;;13.8;74.5
50166;BME280;36071;48.140;11.516;2023-05-12T13:58:57;95280.0;;;13.9;75.4
50166;BME280;36071;48.140;11.516;2023-05-12T14:03:57;95280.0;;;14.1;74.9
50166;BME280;36071;48.140;11.516;2023-05-12T14:08:57;95280.0;;;14.2;74.6
50166;BME280;36071;48.140;11.516;2023-05-12T14:13:57;95280.0;;;14.1;73.9
50166;BME280;36071;48.140;11.516;2023-05-12T14:18:57;95290.0;;;14.0;74.6
50166;BME280;36071;48.140;11.516;2023-05-12T14:23:57;95290.0;;;13.9;75.8
50166;BME280;36071;48.140;11.516;2023-05-12T14:28:57;95290.0;;;13.9;77.1
50166;BME280;36071;48.140;11.516;2023-05-12T14:33:57;95290.0;;;13.7;78.2
50166;BME280;36071;48.140;11.516;2023-05-12T14:38:57;95290.0;;;13.7;81.3
50166;BME280;36071;48.140;11.516;2023-05-12T14:43:57;95290.0;;;13.6;80.5
50166;BME280;36071;48.140;11.516;2023-05-12T14:48:57;95300.0;;;13.5;79.9
50166;BME280;36071;48.140;11.516;2023-05-12T14:53:57;95300.0;;;13.4;80.2
50166;BME280;36071;48.140;11.516;2023-05-12T14:58:57;95290.0;;;13.3;80.8
50166;BME280;36071;48.140;11.516;2023-05-12T15:03:57;95300.0;;;13.2;82.2
50166;BME280;36071;48.140;11.516;2023-05-12T15:08:57;95290.0;;;13.1;82.2
50166;BME280;36071;48.140;11.516;2023-05-12T15:13:57;95300.0;;;13.0;82.9
50166;BME280;36071;48.140;11.516;2023-05-12T15:18:57;95310.0;;;12.9;82.2
50166;BME280;36071;48.140;11.516;2023-05-12T15:23:57;95300.0;;;12.8;82.8
50166;BME280;36071;48.140;11.516;2023-05-12T15:28:57;95300.0;;;12.8;82.5
50166;BME280;36071;48.140;11.516;2023-05-12T15:33:57;95310.0;;;12.8;81.7
50166;BME280;36071;48.140;11.516;2023-05-12T15:38:57;95310.0;;;12.7;82.4
50166;BME280;36071;48.140;11.516;2023-05-12T15:43:57;95310.0;;;12.7;81.8
50166;BME280;36071;48.140;11.516;2023-05-12T15:48:57;95320.0;;;12.7;81.5
50166;BME280;36071;48.140;11.516;2023-05-12T15:53:57;95320.0;;;12.7;81.4
50166;BME280;36071;48.140;11.516;2023-05-12T16:08:57;95310.0;;;12.6;82.5
50166;BME280;36071;48.140;11.516;2023-05-12T16:13:57;95320.0;;;12.6;83.0
50166;BME280;36071;48.140;11.516;2023-05-12T16:18:57;95320.0;;;12.6;82.7
50166;BME280;36071;48.140;11.516;2023-05-12T16:23:57;95320.0;;;12.6;82.8
50166;BME280;36071;48.140;11.516;2023-05-12T16:28:57;95320.0;;;12.5;81.8
50166;BME280;36071;48.140;11.516;2023-05-12T16:33:57;95320.0;;;12.6;82.1
50166;BME280;36071;48.140;11.516;2023-05-12T16:38:57;95310.0;;;12.6;82.9
50166;BME280;36071;48.140;11.516;2023-05-12T16:43:57;95310.0;;;12.6;83.6
50166;BME280;36071;48.140;11.516;2023-05-12T16:48:57;95310.0;;;12.5;84.3
50166;BME280;36071;48.140;11.516;2023-05-12T16:53:57;95310.0;;;12.6;86.2
50166;BME280;36071;48.140;11.516;2023-05-12T16:58:57;95330.0;;;12.6;84.2
50166;BME280;36071;48.140;11.516;2023-05-12T17:03:57;95330.0;;;12.5;84.2
50166;BME280;36071;48.140;11.516;2023-05-12T17:08:57;95330.0;;;12.4;83.3
50166;BME280;36071;48.140;11.516;2023-05-12T17:13:57;95330.0;;;12.3;82.9
50166;BME280;36071;48.140;11.516;2023-05-12T17:18:58;95340.0;;;12.2;82.5
50166;BME280;36071;48.140;11.516;2023-05-12T17:23:57;95340.0;;;12.2;84.9
50166;BME280;36071;48.140;11.516;2023-05-12T17:28:57;95330.0;;;12.3;84.6
50166;BME280;36071;48.140;11.516;2023-05-12T17:33:57;95340.0;;;12.3;85.2
50166;BME280;36071;48.140;11.516;2023-05-12T17:38:58;95350.0;;;12.2;84.6
50166;BME280;36071;48.140;11.516;2023-05-12T17:43:57;95350.0;;;12.2;85.2
50166;BME280;36071;48.140;11.516;2023-05-12T17:48:57;95350.0;;;12.1;85.9
50166;BME280;36071;48.140;11.516;2023-05-12T17:53:57;95340.0;;;12.1;85.5
50166;BME280;36071;48.140;11.516;2023-05-12T17:58:57;95360.0;;;12.2;86.0
50166;BME280;36071;48.140;11.516;2023-05-12T18:03:57;95360.0;;;12.2;85.7
50166;BME280;36071;48.140;11.516;2023-05-12T18:08:57;95360.0;;;12.1;84.7
50166;BME280;36071;48.140;11.516;2023-05-12T18:13:57;95360.0;;;12.1;84.4
50166;BME280;36071;48.140;11.516;2023-05-12T18:18:57;95360.0;;;12.0;84.5
50166;BME280;36071;48.140;11.516;2023-05-12T18:23:57;95370.0;;;12.0;85.7
50166;BME280;36071;48.140;11.516;2023-05-12T18:28:57;95360.0;;;12.0;86.8
50166;BME280;36071;48.140;11.516;2023-05-12T18:33:57;95360.0;;;11.9;86.6
50166;BME280;36071;48.140;11.516;2023-05-12T18:38:57;95370.0;;;11.9;86.8
50166;BME280;36071;48.140;11.516;2023-05-12T18:43:57;95370.0;;;11.8;86.7
50166;BME280;36071;48.140;11.516;2023-05-12T18:53:57;95370.0;;;11.8;86.7
50166;BME280;36071;48.140;11.516;2023-05-12T18:58:57;95380.0;;;11.8;86.8
50166;BME280;36071;48.140;11.516;2023-05-12T19:03:57;95350.0;;;11.5;86.4
50166;BME280;36071;48.140;11.516;2023-05-12T19:08:57;95390.0;;;11.7;86.4
50166;BME280;36071;48.140;11.516;2023-05-12T19:13:57;95380.0;;;11.6;86.3
50166;BME280;36071;48.140;11.516;2023-05-12T19:18:57;95390.0;;;11.6;86.0
50166;BME280;36071;48.140;11.516;2023-05-12T19:23:57;95390.0;;;11.7;86.3
50166;BME280;36071;48.140;11.516;2023-05-12T19:28:57;95400.0;;;11.7;86.2
50166;BME280;36071;48.140;11.516;2023-05-12T19:33:57;95400.0;;;11.6;85.6
50166;BME280;36071;48.140;11.516;2023-05-12T19:38:57;95390.0;;;11.6;86.4
50166;BME280;36071;48.140;11.516;2023-05-12T19:43:57;95390.0;;;11.5;87.0
50166;BME280;36071;48.140;11.516;2023-05-12T19:48:57;95400.0;;;11.4;86.6
50166;BME280;36071;48.140;11.516;2023-05-12T19:53:57;95400.0;;;11.5;86.4
50166;BME280;36071;48.140;11.516;2023-05-12T19:58:57;95400.0;;;11.4;85.6
50166;BME280;36071;48.140;11.516;2023-05-12T20:08:57;95400.0;;;11.5;85.9
50166;BME280;36071;48.140;11.516;2023-05-12T20:13:57;95400.0;;;11.4;85.5
50166;BME280;36071;48.140;11.516;2023-05-12T20:18:57;95410.0;;;11.3;87.4
50166;BME280;36071;48.140;11.516;2023-05-12T20:23:57;95390.0;;;11.5;86.0
50166;BME280;36071;48.140;11.516;2023-05-12T20:28:57;95400.0;;;11.5;83.4
50166;BME280;36071;48.140;11.516;2023-05-12T20:33:57;95410.0;;;11.4;83.7
50166;BME280;36071;48.140;11.516;2023-05-12T20:38:57;95400.0;;;11.5;82.7
50166;BME280;36071;48.140;11.516;2023-05-12T20:43:57;95400.0;;;11.4;82.4
50166;BME280;36071;48.140;11.516;2023-05-12T20:48:57;95410.0;;;11.4;83.0
50166;BME280;36071;48.140;11.516;2023-05-12T20:53:57;95410.0;;;11.4;82.4
50166;BME280;36071;48.140;11.516;2023-05-12T20:58:58;95400.0;;;11.3;83.0
50166;BME280;36071;48.140;11.516;2023-05-12T21:03:57;95400.0;;;11.2;83.9
50166;BME280;36071;48.140;11.516;2023-05-12T21:08:57;95410.0;;;11.2;83.7
50166;BME280;36071;48.140;11.516;2023-05-12T21:13:57;95410.0;;;11.2;83.9
50166;BME280;36071;48.140;11.516;2023-05-12T21:18:57;95400.0;;;11.1;84.6
50166;BME280;36071;48.140;11.516;2023-05-12T21:23:57;95410.0;;;11.1;83.7
50166;BME280;36071;48.140;11.516;2023-05-12T21:28:57;95420.0;;;11.1;83.5
50166;BME280;36071;48.140;11.516;2023-05-12T21:33:57;95410.0;;;11.1;83.9
50166;BME280;36071;48.140;11.516;2023-05-12T21:43:57;95410.0;;;11.1;84.5
50166;BME280;36071;48.140;11.516;2023-05-12T21:48:57;95410.0;;;10.9;84.8
50166;BME280;36071;48.140;11.516;2023-05-12T21:53:57;95420.0;;;11.0;85.2
50166;BME280;36071;48.140;11.516;2023-05-12T21:58:57;95410.0;;;10.9;85.5
50166;BME280;36071;48.140;11.516;2023-05-12T22:03:57;95420.0;;;10.9;85.0
50166;BME280;36071;48.140;11.516;2023-05-12T22:08:57;95420.0;;;10.9;84.8
50166;BME280;36071;48.140;11.516;2023-05-12T22:13:57;95420.0;;;10.9;85.0
50166;BME280;36071;48.140;11.516;2023-05-12T22:18:57;95420.0;;;10.9;85.2
50166;BME280;36071;48.140;11.516;2023-05-12T22:23:57;95420.0;;;10.8;84.8
50166;BME280;36071;48.140;11.516;2023-05-12T22:28:57;95410.0;;;10.8;85.4
50166;BME280;36071;48.140;11.516;2023-05-12T22:33:57;95410.0;;;10.8;84.6
50166;BME280;36071;48.140;11.516;2023-05-12T22:38:57;95420.0;;;10.8;85.0
50166;BME280;36071;48.140;11.516;2023-05-12T22:43:57;95410.0;;;10.8;84.7
50166;BME280;36071;48.140;11.516;2023-05-12T22:48:57;95410.0;;;10.8;84.2
50166;BME280;36071;48.140;11.516;2023-05-12T22:53:57;95410.0;;;10.7;84.3
50166;BME280;36071;48.140;11.516;2023-05-12T22:58:58;95410.0;;;10.7;85.4
50166;BME280;36071;48.140;11.516;2023-05-12T23:03:57;95410.0;;;10.7;84.3
50166;BME280;36071;48.140;11.516;2023-05-12T23:08:57;95400.0;;;10.7;84.4
50166;BME280;36071;48.140;11.516;2023-05-12T23:13:57;95400.0;;;10.7;84.3
50166;BME280;36071;48.140;11.516;2023-05-12T23:18:57;95390.0;;;10.6;85.2
50166;BME280;36071;48.140;11.516;2023-05-12T23:23:57;95400.0;;;10.6;84.9
50166;BME280;36071;48.140;11.516;2023-05-12T23:28:57;95390.0;;;10.6;85.9
50166;BME280;36071;48.140;11.516;2023-05-12T23:33:57;95390.0;;;10.6;86.0
50166;BME280;36071;48.140;11.516;2023-05-12T23:43:57;95390.0;;;10.6;85.9
50166;BME280;36071;48.140;11.516;2023-05-12T23:48:57;95390.0;;;10.5;86.4
50166;BME280;36071;48.140;11.516;2023-05-12T23:53:57;95380.0;;;10.5;87.0
50166;BME280;36071;48.140;11.516;2023-05-12T23:58:57;95380.0;;;10.5;86.7
